Time;durP1;ratioP1;P1;durP2;ratioP2;P2;SDS_P1;SDS_P2;PMS_P1;PMS_P2;Temp;Humidity;BMP_temperature;BMP_pressure;BME280_temperature;BME280_humidity;BME280_pressure;Samples;Min_cycle;Max_cycle;Signal;HPM_P1;HPM_P2
2021/04/01 00:01:11;;;;;;;25.83;12.27;;;;;;;;;;4888867;29;20048;-87
2021/04/01 00:03:42;;;;;;;25.15;11.70;;;14.10;99.90;;;;;;4903568;29;20057;-87
2021/04/01 00:06:15;;;;;;;27.27;12.95;;;14.00;99.90;;;;;;4889508;29;20045;-88
2021/04/01 00:08:44;;;;;;;25.25;11.57;;;;;;;;;;4904705;29;20059;-87
2021/04/01 00:11:13;;;;;;;24.33;10.85;;;13.90;99.90;;;;;;4902592;29;20064;-87
2021/04/01 00:13:41;;;;;;;21.85;9.38;;;;;;;;;;4866163;29;20064;-87
2021/04/01 00:16:09;;;;;;;21.58;10.25;;;;;;;;;;4903628;29;20056;-86
2021/04/01 00:18:37;;;;;;;22.25;9.75;;;;;;;;;;4907958;29;20048;-87
2021/04/01 00:21:05;;;;;;;19.02;8.77;;;;;;;;;;4913598;29;20054;-87
2021/04/01 00:23:32;;;;;;;24.88;8.65;;;;;;;;;;4909553;29;20095;-88
2021/04/01 00:26:00;;;;;;;16.77;8.50;;;;;;;;;;4881136;29;20064;-88
2021/04/01 00:28:28;;;;;;;18.67;9.07;;;;;;;;;;4899570;29;20053;-87
2021/04/01 00:30:55;;;;;;;20.88;9.43;;;;;;;;;;4896846;29;20068;-88
2021/04/01 00:33:23;;;;;;;24.65;10.18;;;;;;;;;;4882350;29;20059;-89
2021/04/01 00:35:51;;;;;;;18.17;8.68;;;;;;;;;;4913449;29;20056;-88
2021/04/01 00:38:18;;;;;;;28.92;10.85;;;;;;;;;;4910744;29;20057;-88
2021/04/01 00:40:47;;;;;;;20.67;8.23;;;14.10;99.90;;;;;;4892706;29;20598;-86
2021/04/01 00:43:15;;;;;;;22.65;10.35;;;;;;;;;;4897903;29;20084;-87
2021/04/01 00:45:42;;;;;;;20.98;9.50;;;;;;;;;;4898445;29;20053;-87
2021/04/01 00:48:10;;;;;;;24.45;9.07;;;;;;;;;;4900546;29;20079;-87
2021/04/01 00:50:38;;;;;;;13.10;8.35;;;;;;;;;;4898214;29;20079;-85
2021/04/01 00:53:07;;;;;;;19.25;8.23;;;;;;;;;;4885417;29;20053;-87
2021/04/01 00:55:34;;;;;;;18.70;8.55;;;14.00;99.90;;;;;;4899902;29;20056;-88
2021/04/01 00:58:04;;;;;;;17.58;7.82;;;13.90;99.90;;;;;;4878668;29;20060;-87
2021/04/01 01:00:36;;;;;;;21.33;8.52;;;;;;;;;;4894478;29;20053;-86
2021/04/01 01:03:04;;;;;;;25.65;10.20;;;;;;;;;;4880353;29;20060;-86
2021/04/01 01:05:35;;;;;;;21.38;10.98;;;13.80;99.90;;;;;;4909105;29;20051;-87
2021/04/01 01:08:03;;;;;;;17.95;8.55;;;;;;;;;;4896187;29;20091;-88
2021/04/01 01:10:32;;;;;;;18.08;8.52;;;13.50;99.90;;;;;;4882469;29;20052;-88
2021/04/01 01:13:01;;;;;;;22.55;7.50;;;14.00;99.90;;;;;;4880255;29;20056;-86
2021/04/01 01:15:29;;;;;;;21.92;6.82;;;;;;;;;;4896261;29;20424;-86
2021/04/01 01:17:57;;;;;;;16.40;8.68;;;;;;;;;;4894494;29;20053;-89
2021/04/01 01:20:27;;;;;;;19.48;8.90;;;13.90;99.90;;;;;;4895518;29;20064;-89
2021/04/01 01:23:15;;;;;;;17.67;7.45;;;;;;;;;;4895595;29;20048;-89
2021/04/01 01:25:44;;;;;;;21.20;9.20;;;;;;;;;;4861143;29;20065;-87
2021/04/01 01:28:12;;;;;;;17.00;7.97;;;;;;;;;;4894271;29;20056;-89
2021/04/01 01:30:40;;;;;;;22.42;8.35;;;;;;;;;;4896065;29;20130;-87
2021/04/01 01:33:08;;;;;;;17.63;7.30;;;;;;;;;;4879721;29;20053;-86
2021/04/01 01:35:36;;;;;;;18.40;8.57;;;13.30;99.90;;;;;;4878773;29;20055;-86
2021/04/01 01:38:07;;;;;;;15.43;8.20;;;13.30;99.90;;;;;;4893682;29;20072;-86
2021/04/01 01:40:37;;;;;;;23.07;10.00;;;13.40;99.90;;;;;;4878798;29;20486;-87
2021/04/01 01:43:07;;;;;;;19.08;8.70;;;13.30;99.90;;;;;;4894151;29;20056;-88
2021/04/01 01:45:35;;;;;;;15.50;7.85;;;;;;;;;;4878921;29;20053;-90
2021/04/01 01:48:03;;;;;;;17.70;8.57;;;;;;;;;;4897204;29;20067;-88
2021/04/01 01:50:33;;;;;;;18.15;9.15;;;13.20;99.90;;;;;;4868398;29;20072;-88
2021/04/01 01:53:01;;;;;;;21.38;10.70;;;13.30;99.90;;;;;;4899029;29;20061;-88
2021/04/01 01:55:29;;;;;;;14.23;8.20;;;;;;;;;;4898090;29;20055;-87
2021/04/01 01:57:57;;;;;;;18.25;8.77;;;;;;;;;;4887343;29;20076;-88
2021/04/01 02:00:34;;;;;;;19.55;8.98;;;13.30;99.90;;;;;;4908118;29;20057;-87
2021/04/01 02:03:05;;;;;;;18.85;10.35;;;13.00;99.90;;;;;;4889901;29;20060;-90
2021/04/01 02:05:35;;;;;;;26.73;10.02;;;12.90;99.90;;;;;;4900389;29;20056;-90
2021/04/01 02:08:04;;;;;;;24.60;10.05;;;13.00;99.90;;;;;;4900442;29;20064;-89
2021/04/01 02:10:37;;;;;;;18.10;10.40;;;13.00;99.90;;;;;;4898498;29;20052;-89
2021/04/01 02:13:05;;;;;;;22.95;9.32;;;;;;;;;;4897984;29;20056;-91
2021/04/01 02:15:35;;;;;;;28.17;10.15;;;12.70;99.90;;;;;;4896993;29;20069;-92
2021/04/01 02:18:07;;;;;;;20.58;9.38;;;12.70;99.90;;;;;;4909486;29;20056;-92
2021/04/01 02:20:43;;;;;;;24.77;9.40;;;12.70;99.90;;;;;;4899075;29;20105;-88
2021/04/01 02:23:22;;;;;;;17.67;9.05;;;12.60;99.90;;;;;;4899023;29;20060;-90
2021/04/01 02:25:50;;;;;;;20.20;9.80;;;12.50;99.90;;;;;;4899220;29;20063;-88
2021/04/01 02:28:20;;;;;;;15.93;9.15;;;12.50;99.90;;;;;;4904066;29;20056;-87
2021/04/01 02:30:51;;;;;;;21.58;9.45;;;12.50;99.90;;;;;;4887443;29;20056;-87
2021/04/01 02:33:20;;;;;;;19.70;9.80;;;12.60;99.90;;;;;;4896859;29;20496;-87
2021/04/01 02:35:48;;;;;;;22.42;11.35;;;;;;;;;;4895948;29;20063;-87
2021/04/01 02:38:15;;;;;;;23.48;11.68;;;;;;;;;;4880519;29;20060;-86
2021/04/01 02:40:43;;;;;;;26.10;10.30;;;;;;;;;;4879713;29;20049;-86
2021/04/01 02:43:13;;;;;;;20.58;11.50;;;;;;;;;;4877908;29;20056;-87
2021/04/01 02:45:41;;;;;;;18.90;10.07;;;;;;;;;;4863674;29;20053;-86
2021/04/01 02:48:08;;;;;;;19.85;11.02;;;;;;;;;;4895149;29;20044;-87
2021/04/01 02:50:36;;;;;;;29.38;11.20;;;;;;;;;;4893654;29;20049;-85
2021/04/01 02:53:03;;;;;;;29.00;11.73;;;;;;;;;;4893020;29;20071;-86
2021/04/01 02:55:31;;;;;;;34.38;15.85;;;;;;;;;;4893290;29;20052;-85
2021/04/01 02:57:59;;;;;;;37.33;19.75;;;;;;;;;;4895645;29;20049;-87
2021/04/01 03:00:29;;;;;;;34.67;19.80;;;;;;;;;;4904745;29;20059;-89
2021/04/01 03:03:42;;;;;;;53.15;25.45;;;;;;;;;;4885178;29;20048;-87
2021/04/01 03:05:47;;;;;;;38.67;24.87;;;;;;;;;;4900500;29;20063;-88
2021/04/01 03:08:15;;;;;;;40.33;22.15;;;;;;;;;;4890309;29;20072;-88
2021/04/01 03:10:43;;;;;;;38.67;24.73;;;;;;;;;;4900145;29;20060;-87
2021/04/01 03:13:11;;;;;;;38.47;22.55;;;12.20;99.90;;;;;;4900942;29;20060;-86
2021/04/01 03:15:49;;;;;;;47.45;25.63;;;;;;;;;;4900971;29;20056;-87
2021/04/01 03:18:18;;;;;;;60.25;32.85;;;12.50;99.90;;;;;;4897704;29;20057;-87
2021/04/01 03:20:47;;;;;;;62.65;30.08;;;12.50;99.90;;;;;;4899662;29;20068;-85
2021/04/01 03:23:14;;;;;;;60.70;30.75;;;;;;;;;;4898652;29;20053;-85
2021/04/01 03:25:42;;;;;;;70.00;37.53;;;;;;;;;;4895180;29;20052;-86
2021/04/01 03:28:11;;;;;;;62.97;35.75;;;;;;;;;;4882232;29;20065;-87
2021/04/01 03:30:45;;;;;;;70.32;39.10;;;;;;;;;;4898979;29;20056;-87
2021/04/01 03:33:13;;;;;;;77.65;37.38;;;;;;;;;;4896562;29;20060;-85
2021/04/01 03:35:40;;;;;;;78.82;40.38;;;;;;;;;;4878329;29;20060;-86
2021/04/01 03:38:09;;;;;;;96.43;44.08;;;;;;;;;;4896256;29;20063;-88
2021/04/01 03:40:37;;;;;;;84.70;41.22;;;;;;;;;;4879637;29;20048;-86
2021/04/01 03:43:05;;;;;;;71.47;40.22;;;;;;;;;;4894722;29;20072;-89
2021/04/01 03:45:32;;;;;;;88.70;46.70;;;;;;;;;;4864607;29;20052;-88
2021/04/01 03:48:00;;;;;;;84.90;43.38;;;;;;;;;;4894869;29;20484;-87
2021/04/01 03:50:27;;;;;;;98.10;45.55;;;;;;;;;;4894958;29;20044;-88
2021/04/01 03:52:55;;;;;;;88.55;43.00;;;;;;;;;;4896522;29;20064;-88
2021/04/01 03:55:42;;;;;;;90.55;46.00;;;;;;;;;;4898252;29;20548;-88
2021/04/01 04:14:12;;;;;;;82.78;46.60;;;;;;;;;;4909690;29;20059;-88
2021/04/01 04:16:41;;;;;;;87.73;45.73;;;;;;;;;;4900307;29;20440;-87
2021/04/01 04:19:09;;;;;;;74.85;40.08;;;10.90;99.90;;;;;;4884775;29;20053;-85
2021/04/01 04:21:38;;;;;;;80.18;38.67;;;;;;;;;;4900418;29;20068;-84
2021/04/01 04:24:08;;;;;;;84.60;39.40;;;10.60;99.90;;;;;;4897864;29;20068;-86
2021/04/01 04:26:41;;;;;;;72.53;37.40;;;;;;;;;;4882742;29;20060;-86
2021/04/01 04:29:08;;;;;;;69.18;40.63;;;;;;;;;;4897388;29;20049;-89
2021/04/01 04:31:36;;;;;;;74.10;36.25;;;;;;;;;;4896672;29;20424;-89
2021/04/01 04:34:04;;;;;;;73.60;39.88;;;;;;;;;;4883139;29;20044;-87
2021/04/01 04:36:31;;;;;;;75.20;36.63;;;;;;;;;;4898044;29;20060;-91
2021/04/01 04:38:58;;;;;;;70.07;40.42;;;;;;;;;;4899186;29;20063;-86
2021/04/01 04:41:26;;;;;;;86.78;43.25;;;;;;;;;;4899019;29;20074;-88
2021/04/01 04:43:53;;;;;;;79.78;42.38;;;;;;;;;;4884241;29;20055;-85
2021/04/01 04:46:21;;;;;;;73.95;40.20;;;;;;;;;;4902100;29;20072;-90
2021/04/01 04:48:49;;;;;;;86.50;46.67;;;;;;;;;;4886344;29;20056;-85
2021/04/01 04:51:16;;;;;;;70.47;40.72;;;;;;;;;;4907009;29;20064;-86
2021/04/01 04:53:44;;;;;;;74.80;39.47;;;;;;;;;;4907343;29;20067;-88
2021/04/01 04:56:16;;;;;;;80.30;41.22;;;;;;;;;;4892005;29;20064;-87
2021/04/01 05:09:09;;;;;;;73.03;40.95;;;;;;;;;;4886860;29;20060;-90
2021/04/01 05:11:37;;;;;;;81.50;43.17;;;;;;;;;;4885728;29;20067;-89
2021/04/01 05:14:06;;;;;;;88.63;44.83;;;;;;;;;;4885462;29;20493;-90
2021/04/01 05:16:33;;;;;;;84.20;43.40;;;;;;;;;;4902697;29;20076;-87
2021/04/01 05:19:09;;;;;;;93.72;43.70;;;;;;;;;;4900527;29;20061;-86
2021/04/01 05:24:11;;;;;;;99.03;43.30;;;;;;;;;;4900562;29;20048;-86
2021/04/01 05:29:21;;;;;;;86.13;44.80;;;;;;;;;;4902068;29;20544;-85
2021/04/01 05:31:49;;;;;;;92.55;50.05;;;;;;;;;;4906037;29;20051;-84
2021/04/01 05:34:20;;;;;;;106.82;47.53;;;;;;;;;;4909332;29;20734;-86
2021/04/01 05:36:48;;;;;;;91.60;51.72;;;;;;;;;;4888860;29;20382;-86
2021/04/01 05:39:18;;;;;;;104.32;52.30;;;;;;;;;;4904817;29;20060;-85
2021/04/01 05:41:50;;;;;;;95.13;45.63;;;9.50;99.90;;;;;;4899240;29;20056;-84
2021/04/01 05:58:41;;;;;;;93.07;50.17;;;9.50;99.90;;;;;;4881665;29;20056;-85
2021/04/01 06:01:31;;;;;;;102.65;49.72;;;9.20;99.90;;;;;;4886992;29;20049;-86
2021/04/01 06:04:43;;;;;;;106.43;50.88;;;9.60;99.90;;;;;;4900127;29;20064;-85
2021/04/01 06:07:27;;;;;;;98.43;50.95;;;9.50;99.90;;;;;;4883870;29;20059;-86
2021/04/01 06:09:57;;;;;;;98.28;49.47;;;9.40;99.90;;;;;;4899612;29;20138;-87
2021/04/01 06:12:34;;;;;;;96.20;44.10;;;;;;;;;;4901543;29;20049;-86
2021/04/01 06:15:11;;;;;;;106.68;48.20;;;9.60;99.90;;;;;;4899583;29;20319;-86
2021/04/01 06:17:46;;;;;;;107.97;48.97;;;9.40;99.90;;;;;;4895905;29;20552;-86
2021/04/01 06:20:16;;;;;;;114.88;46.88;;;9.60;99.90;;;;;;4902559;29;20507;-86
2021/04/01 06:22:44;;;;;;;99.30;45.75;;;;;;;;;;4890935;29;20063;-86
2021/04/01 06:25:18;;;;;;;100.03;48.97;;;9.70;99.90;;;;;;4918463;29;20067;-85
2021/04/01 06:28:16;;;;;;;109.40;46.65;;;9.70;99.90;;;;;;5007865;23;20051;-85
2021/04/01 06:31:28;;;;;;;91.25;44.28;;;;;;;;;;4884777;29;20071;-85
2021/04/01 06:34:05;;;;;;;115.68;46.08;;;;;;;;;;4872483;29;20049;-86
2021/04/01 06:36:55;;;;;;;99.45;49.35;;;9.70;99.90;;;;;;4891655;29;20053;-85
2021/04/01 06:39:39;;;;;;;90.00;41.00;;;;;;;;;;4884494;29;20064;-85
2021/04/01 06:42:23;;;;;;;105.60;46.10;;;9.70;99.90;;;;;;4881964;29;20053;-87
2021/04/01 06:45:18;;;;;;;93.90;41.33;;;9.60;99.90;;;;;;4855714;29;20064;-87
2021/04/01 06:47:58;;;;;;;87.75;41.78;;;9.90;99.90;;;;;;4869916;29;20053;-84
2021/04/01 06:50:38;;;;;;;90.55;41.92;;;9.80;99.90;;;;;;4869053;29;20060;-88
2021/04/01 06:53:27;;;;;;;92.25;41.13;;;9.80;99.90;;;;;;4869528;29;20068;-87
2021/04/01 06:56:48;;;;;;;83.72;40.60;;;9.80;99.90;;;;;;4894449;29;20065;-88
2021/04/01 07:00:08;;;;;;;85.43;43.72;;;9.90;99.90;;;;;;4885206;29;20051;-88
2021/04/01 07:02:54;;;;;;;86.88;39.40;;;9.90;99.90;;;;;;4862054;29;20426;-90
2021/04/01 07:05:50;;;;;;;87.35;37.17;;;9.90;99.90;;;;;;4855245;29;20053;-88
2021/04/01 07:11:40;;;;;;;84.72;38.40;;;10.00;99.90;;;;;;4865660;29;20159;-90
2021/04/01 07:14:23;;;;;;;90.60;41.55;;;10.00;99.90;;;;;;4847651;29;20490;-89
2021/04/01 07:47:34;;;;;;;79.40;38.25;;;10.10;99.90;;;;;;4865821;29;20053;-88
2021/04/01 07:50:17;;;;;;;79.55;40.38;;;10.30;99.90;;;;;;4850363;29;20064;-88
2021/04/01 07:52:54;;;;;;;77.60;33.95;;;10.20;99.90;;;;;;4859828;29;20064;-88
2021/04/01 08:06:05;;;;;;;75.40;34.17;;;;;;;;;;4878715;29;20068;-89
2021/04/01 08:08:36;;;;;;;64.95;29.67;;;11.10;99.90;;;;;;4871373;29;20053;-89
2021/04/01 08:11:07;;;;;;;65.03;29.30;;;10.20;99.90;;;;;;4867816;29;20057;-87
2021/04/01 08:13:39;;;;;;;66.55;32.17;;;10.30;99.90;;;;;;4848688;29;20061;-89
2021/04/01 08:16:09;;;;;;;65.88;30.83;;;;;;;;;;4853136;29;20053;-89
2021/04/01 08:18:39;;;;;;;69.57;30.17;;;;;;;;;;4879118;29;20379;-89
2021/04/01 08:21:11;;;;;;;70.63;31.73;;;;;;;;;;4852165;29;20053;-90
2021/04/01 08:24:04;;;;;;;78.20;35.05;;;10.50;99.90;;;;;;4875490;29;20045;-89
2021/04/01 08:35:57;;;;;;;72.55;32.85;;;10.50;99.90;;;;;;4863396;29;20060;-92
2021/04/01 08:38:45;;;;;;;70.65;27.92;;;10.80;99.90;;;;;;4828832;29;20510;-90
2021/04/01 08:41:37;;;;;;;60.28;27.48;;;10.80;99.90;;;;;;4853298;29;20057;-88
2021/04/01 08:44:40;;;;;;;57.63;25.95;;;10.80;99.90;;;;;;4869288;29;20065;-91
2021/04/01 08:48:01;;;;;;;64.45;26.98;;;11.00;99.90;;;;;;4866316;29;20037;-91
2021/04/01 08:50:39;;;;;;;54.22;26.08;;;11.10;99.90;;;;;;4869912;29;20061;-92
2021/04/01 08:53:32;;;;;;;53.90;25.83;;;;;;;;;;4841089;29;20065;-91
2021/04/01 08:56:23;;;;;;;56.55;26.63;;;;;;;;;;4863300;29;20060;-90
2021/04/01 08:59:36;;;;;;;58.67;23.80;;;11.30;99.90;;;;;;4896903;23;20490;-90
2021/04/01 09:02:13;;;;;;;41.75;18.73;;;11.20;99.90;;;;;;4869207;29;20053;-90
2021/04/01 09:04:48;;;;;;;43.58;21.77;;;11.30;99.90;;;;;;4877650;29;20837;-88
2021/04/01 09:08:06;;;;;;;46.85;17.90;;;11.30;99.90;;;;;;4872844;29;20042;-91
2021/04/01 09:10:40;;;;;;;53.40;18.98;;;;;;;;;;4848674;29;20063;-89
2021/04/01 09:13:21;;;;;;;48.58;19.80;;;;;;;;;;4861409;29;20085;-88
2021/04/01 09:15:52;;;;;;;36.42;20.17;;;;;;;;;;4846913;29;20044;-88
2021/04/01 09:18:21;;;;;;;47.42;20.27;;;11.50;99.90;;;;;;4851979;29;20052;-87
2021/04/01 09:20:53;;;;;;;46.13;16.83;;;11.50;99.90;;;;;;4887125;29;20063;-87
2021/04/01 09:23:36;;;;;;;44.00;15.60;;;11.40;99.90;;;;;;4849761;29;20517;-87
2021/04/01 09:26:05;;;;;;;36.30;14.85;;;11.70;99.90;;;;;;4884839;29;20060;-91
2021/04/01 09:28:38;;;;;;;42.03;15.23;;;11.70;99.90;;;;;;4859484;29;20049;-89
2021/04/01 09:31:06;;;;;;;52.65;15.82;;;11.70;99.90;;;;;;4884239;29;20060;-88
2021/04/01 09:33:35;;;;;;;46.75;18.15;;;11.80;99.90;;;;;;4889669;29;20056;-87
2021/04/01 09:36:15;;;;;;;50.40;16.80;;;11.70;99.90;;;;;;4861726;29;20053;-87
2021/04/01 09:38:48;;;;;;;43.33;18.48;;;11.90;99.90;;;;;;4872724;29;20048;-88
2021/04/01 09:41:27;;;;;;;45.55;15.73;;;11.70;99.90;;;;;;4860313;29;20057;-88
2021/04/01 09:43:55;;;;;;;42.75;15.75;;;;;;;;;;4871905;29;20063;-87
2021/04/01 09:46:23;;;;;;;27.30;12.45;;;12.20;99.90;;;;;;4884258;29;20056;-89
2021/04/01 09:49:00;;;;;;;38.28;15.43;;;12.30;99.90;;;;;;4873627;29;20052;-88
2021/04/01 09:51:31;;;;;;;37.40;15.05;;;12.50;99.90;;;;;;4845546;29;20068;-89
2021/04/01 09:53:59;;;;;;;34.03;13.02;;;12.50;99.90;;;;;;4878391;29;20050;-91
2021/04/01 09:56:33;;;;;;;29.58;12.18;;;12.50;99.90;;;;;;4845885;29;20061;-90
2021/04/01 09:59:01;;;;;;;34.45;12.65;;;;;;;;;;4857732;29;20065;-89
2021/04/01 10:01:38;;;;;;;34.33;13.50;;;12.60;99.90;;;;;;4869863;29;20057;-89
2021/04/01 10:04:26;;;;;;;27.95;12.35;;;12.90;99.90;;;;;;4873426;29;20049;-90
2021/04/01 10:06:55;;;;;;;36.97;9.90;;;;;;;;;;4863406;29;20529;-88
2021/04/01 10:09:28;;;;;;;28.15;11.10;;;;;;;;;;4867536;29;20057;-89
2021/04/01 10:12:07;;;;;;;39.20;11.07;;;12.80;99.90;;;;;;4873099;29;20057;-88
2021/04/01 10:14:51;;;;;;;43.60;12.75;;;12.60;99.90;;;;;;4861707;29;20052;-90
2021/04/01 10:17:21;;;;;;;25.58;8.75;;;12.80;99.90;;;;;;4855017;29;20049;-90
2021/04/01 10:19:57;;;;;;;32.97;12.73;;;12.80;99.90;;;;;;4849538;29;20045;-92
2021/04/01 10:22:28;;;;;;;26.02;11.52;;;12.70;99.90;;;;;;4863226;29;20413;-91
2021/04/01 10:25:17;;;;;;;39.50;9.48;;;12.80;99.90;;;;;;4866252;29;20037;-91
2021/04/01 10:28:06;;;;;;;27.13;8.73;;;12.80;99.90;;;;;;4853382;29;20135;-91
2021/04/01 10:30:36;;;;;;;30.83;9.93;;;;;;;;;;4851870;29;20060;-89
2021/04/01 10:33:19;;;;;;;34.05;10.75;;;12.70;99.90;;;;;;4872022;29;20045;-90
2021/04/01 10:35:49;;;;;;;25.45;9.10;;;;;;;;;;4887866;29;20048;-91
2021/04/01 10:38:21;;;;;;;25.92;10.68;;;12.80;99.90;;;;;;4877672;29;20057;-89
2021/04/01 10:40:50;;;;;;;26.88;8.68;;;;;;;;;;4874735;29;20049;-89
2021/04/01 10:43:20;;;;;;;28.52;14.30;;;13.10;99.90;;;;;;4863362;29;20049;-89
2021/04/01 10:45:48;;;;;;;27.02;8.88;;;;;;;;;;4862915;29;20139;-91
2021/04/01 10:48:27;;;;;;;23.15;8.82;;;13.10;99.90;;;;;;4866360;29;20071;-91
2021/04/01 10:51:02;;;;;;;32.30;8.98;;;;;;;;;;4840124;29;20060;-89
2021/04/01 10:53:31;;;;;;;28.60;7.78;;;13.10;99.90;;;;;;4857306;29;20063;-88
2021/04/01 10:56:04;;;;;;;32.00;11.20;;;13.20;99.90;;;;;;4876328;29;20056;-90
2021/04/01 10:58:33;;;;;;;24.23;8.73;;;13.50;99.90;;;;;;4851816;29;20060;-92
2021/04/01 11:01:02;;;;;;;30.30;9.98;;;13.20;99.90;;;;;;4875751;29;20053;-90
2021/04/01 11:03:33;;;;;;;34.25;9.20;;;13.40;99.90;;;;;;4887337;29;20365;-91
2021/04/01 11:06:01;;;;;;;22.67;9.95;;;13.30;99.90;;;;;;4896185;29;20056;-91
2021/04/01 11:08:40;;;;;;;33.05;10.93;;;13.50;99.90;;;;;;4880684;29;20055;-93
2021/04/01 11:11:08;;;;;;;28.30;9.98;;;13.40;99.90;;;;;;4881820;29;20069;-91
2021/04/01 11:13:38;;;;;;;23.17;7.70;;;13.60;99.90;;;;;;4883015;29;20068;-92
2021/04/01 11:16:08;;;;;;;34.40;7.75;;;13.70;99.90;;;;;;4880899;29;20063;-90
2021/04/01 11:18:38;;;;;;;25.55;8.20;;;;;;;;;;4856355;29;20052;-91
2021/04/01 11:21:06;;;;;;;22.25;7.93;;;14.00;99.90;;;;;;4857281;29;20060;-92
2021/04/01 11:23:35;;;;;;;19.45;8.82;;;;;;;;;;4891672;29;20052;-91
2021/04/01 11:26:04;;;;;;;27.63;9.60;;;;;;;;;;4890772;29;20056;-88
2021/04/01 11:28:37;;;;;;;22.15;8.13;;;;;;;;;;4859899;29;20051;-91
2021/04/01 11:31:06;;;;;;;17.67;7.07;;;14.30;99.90;;;;;;4880238;29;20056;-92
2021/04/01 11:33:39;;;;;;;38.67;9.65;;;;;;;;;;4851594;29;20064;-92
2021/04/01 11:36:13;;;;;;;19.33;6.13;;;;;;;;;;4895627;29;20052;-92
2021/04/01 11:38:48;;;;;;;21.80;7.53;;;;;;;;;;4863455;29;20493;-91
2021/04/01 11:41:20;;;;;;;29.75;7.97;;;;;;;;;;4863008;29;20041;-89
2021/04/01 11:43:55;;;;;;;16.85;5.82;;;;;;;;;;4918371;29;20067;-92
2021/04/01 11:46:26;;;;;;;20.35;5.97;;;;;;;;;;4871756;29;20062;-92
2021/04/01 11:49:00;;;;;;;18.70;6.95;;;;;;;;;;4893196;29;20059;-91
2021/04/01 11:51:34;;;;;;;19.50;5.75;;;;;;;;;;4898683;29;20474;-92
2021/04/01 11:54:05;;;;;;;20.42;4.40;;;15.10;99.90;;;;;;4893875;29;20060;-92
2021/04/01 11:56:37;;;;;;;22.17;7.80;;;;;;;;;;4888202;29;20060;-92
2021/04/01 11:59:15;;;;;;;15.30;5.63;;;;;;;;;;4892880;29;20063;-92
2021/04/01 12:01:56;;;;;;;15.63;6.35;;;;;;;;;;4897631;29;20496;-91
2021/04/01 12:04:33;;;;;;;18.02;5.70;;;;;;;;;;4875954;29;20044;-93
2021/04/01 12:07:10;;;;;;;15.50;4.80;;;;;;;;;;4904670;29;20051;-94
2021/04/01 12:09:43;;;;;;;21.38;4.63;;;;;;;;;;4874287;29;20064;-94
2021/04/01 12:12:29;;;;;;;18.40;5.25;;;;;;;;;;4898622;29;20055;-94
2021/04/01 12:15:16;;;;;;;17.55;4.88;;;;;;;;;;4885756;29;20063;-94
2021/04/01 12:17:48;;;;;;;20.10;5.85;;;;;;;;;;4897176;29;20055;-94
2021/04/01 12:20:33;;;;;;;18.02;4.80;;;;;;;;;;4884095;29;20052;-93
2021/04/01 12:23:20;;;;;;;16.40;6.90;;;;;;;;;;4897327;29;20040;-94
2021/04/01 12:30:21;;;;;;;14.90;4.55;;;;;;;;;;4902437;29;20582;-92
2021/04/01 12:33:16;;;;;;;15.70;3.08;;;;;;;;;;4895315;29;20048;-95
2021/04/01 12:36:00;;;;;;;13.80;3.53;;;;;;;;;;4889547;29;20058;-95
2021/04/01 12:39:21;;;;;;;10.43;3.65;;;;;;;;;;4918257;29;20060;-93
2021/04/01 12:50:50;;;;;;;18.70;4.50;;;16.20;99.90;;;;;;4987733;28;20043;-95
2021/04/01 12:53:40;;;;;;;13.88;2.97;;;;;;;;;;4945383;28;20051;-91
2021/04/01 12:56:21;;;;;;;16.77;3.20;;;16.10;99.90;;;;;;4940744;28;20615;-89
2021/04/01 13:01:47;;;;;;;15.05;3.88;;;;;;;;;;4947662;28;20050;-90
2021/04/01 13:04:19;;;;;;;15.45;4.55;;;;;;;;;;4939118;29;20630;-90
2021/04/01 13:12:08;;;;;;;14.73;4.55;;;;;;;;;;4956830;28;20066;-93
2021/04/01 13:14:37;;;;;;;13.75;3.85;;;;;;;;;;4954230;28;20359;-92
2021/04/01 13:17:05;;;;;;;19.60;4.57;;;16.50;99.90;;;;;;4938835;28;20057;-92
2021/04/01 13:19:33;;;;;;;13.35;4.63;;;;;;;;;;4952183;28;20057;-91
2021/04/01 13:27:08;;;;;;;13.55;4.30;;;;;;;;;;4936619;28;20066;-90
2021/04/01 13:29:38;;;;;;;15.20;5.03;;;;;;;;;;4916061;28;20521;-90
2021/04/01 13:32:23;;;;;;;16.02;3.35;;;;;;;;;;4951523;28;20051;-90
2021/04/01 13:34:58;;;;;;;12.98;4.30;;;;;;;;;;4937862;28;20061;-91
2021/04/01 13:37:41;;;;;;;23.77;7.00;;;;;;;;;;4941519;28;20054;-91
2021/04/01 13:40:13;;;;;;;17.05;5.15;;;;;;;;;;4952489;28;20058;-90
2021/04/01 13:42:47;;;;;;;31.08;5.47;;;;;;;;;;4934956;28;20053;-89
2021/04/01 13:45:17;;;;;;;19.60;4.22;;;;;;;;;;4938824;28;20058;-90
2021/04/01 13:47:51;;;;;;;18.98;4.57;;;;;;;;;;4945894;28;20605;-90
2021/04/01 13:50:21;;;;;;;22.92;5.05;;;;;;;;;;4933124;28;20047;-90
2021/04/01 13:55:29;;;;;;;23.35;6.65;;;;;;;;;;4941269;28;20058;-86
2021/04/01 14:11:22;;;;;;;;;;;17.30;99.90;;;;;;4947864;28;20054;-88
2021/04/01 14:13:51;;;;;;;24.17;5.63;;;;;;;;;;4942777;28;19926;-88
2021/04/01 14:16:26;;;;;;;23.52;6.32;;;17.50;99.50;;;;;;4935672;28;20050;-90
2021/04/01 14:18:55;;;;;;;27.55;5.13;;;;;;;;;;4934730;28;20062;-92
2021/04/01 14:21:23;;;;;;;25.95;5.50;;;17.40;98.70;;;;;;4954656;28;20050;-87
2021/04/01 14:23:53;;;;;;;20.55;6.47;;;;;;;;;;4956949;28;20038;-90
2021/04/01 14:26:30;;;;;;;15.10;4.80;;;17.60;99.20;;;;;;4957616;28;20046;-89
2021/04/01 14:28:58;;;;;;;23.88;4.28;;;;;;;;;;4936022;28;20058;-93
2021/04/01 14:31:27;;;;;;;23.67;5.85;;;;;;;;;;4943963;28;20058;-92
2021/04/01 14:34:03;;;;;;;31.08;5.78;;;;;;;;;;4937666;28;20051;-91
2021/04/01 14:36:36;;;;;;;24.58;4.50;;;17.40;98.50;;;;;;4935205;28;20047;-90
2021/04/01 14:39:04;;;;;;;22.05;5.53;;;;;;;;;;4937384;28;20135;-88
2021/04/01 14:42:03;;;;;;;34.20;5.72;;;;;;;;;;4948740;28;20046;-86
2021/04/01 14:44:28;;;;;;;28.80;5.55;;;;;;;;;;4950163;29;20046;-87
2021/04/01 14:46:56;;;;;;;22.08;5.18;;;;;;;;;;4929584;28;20046;-88
2021/04/01 14:49:25;;;;;;;29.25;7.13;;;;;;;;;;4937453;28;20051;-89
2021/04/01 14:51:53;;;;;;;26.08;5.63;;;;;;;;;;4956929;28;20054;-87
2021/04/01 14:54:26;;;;;;;19.55;5.50;;;;;;;;;;4937341;28;20050;-88
2021/04/01 14:57:06;;;;;;;22.83;5.70;;;17.70;98.30;;;;;;4961633;28;20051;-86
2021/04/01 14:59:40;;;;;;;21.17;5.70;;;;;;;;;;4953911;28;20507;-88
2021/04/01 15:02:11;;;;;;;17.48;5.90;;;;;;;;;;4949412;28;20043;-86
2021/04/01 15:04:38;;;;;;;19.67;5.45;;;;;;;;;;4944443;28;20069;-87
2021/04/01 15:07:09;;;;;;;35.25;5.80;;;17.10;98.00;;;;;;4959844;28;20077;-86
2021/04/01 15:09:37;;;;;;;22.48;4.82;;;;;;;;;;4942241;28;20051;-90
2021/04/01 15:12:05;;;;;;;19.88;4.88;;;17.10;97.70;;;;;;4964657;28;20061;-90
2021/04/01 15:14:33;;;;;;;20.00;3.95;;;;;;;;;;4964286;28;20047;-91
2021/04/01 15:17:02;;;;;;;23.00;5.57;;;;;;;;;;4971265;28;20059;-90
2021/04/01 15:19:30;;;;;;;31.20;5.85;;;;;;;;;;4937230;28;20055;-91
2021/04/01 15:21:59;;;;;;;32.38;5.07;;;;;;;;;;4981390;28;20054;-90
2021/04/01 15:24:27;;;;;;;20.40;5.40;;;;;;;;;;4986279;28;20188;-89
2021/04/01 15:26:56;;;;;;;26.70;4.88;;;;;;;;;;4975593;28;20042;-90
2021/04/01 15:29:25;;;;;;;19.95;5.03;;;;;;;;;;4964136;28;20064;-89
2021/04/01 15:31:53;;;;;;;21.17;5.10;;;;;;;;;;4984205;28;20055;-90
2021/04/01 15:34:22;;;;;;;16.55;5.85;;;;;;;;;;4944633;28;20055;-90
2021/04/01 15:36:50;;;;;;;15.18;6.47;;;;;;;;;;4935147;28;20051;-90
2021/04/01 15:39:18;;;;;;;24.20;5.63;;;16.50;99.90;;;;;;4955385;28;20063;-90
2021/04/01 15:41:46;;;;;;;38.33;7.75;;;;;;;;;;4938174;28;20058;-88
2021/04/01 15:44:15;;;;;;;29.15;6.50;;;16.70;99.70;;;;;;4937723;29;20052;-89
2021/04/01 15:46:43;;;;;;;33.78;5.93;;;16.80;96.20;;;;;;4958057;28;20047;-89
2021/04/01 15:49:12;;;;;;;31.75;6.97;;;16.80;96.50;;;;;;4953619;28;20059;-90
2021/04/01 15:51:40;;;;;;;28.05;5.70;;;;;;;;;;4979826;28;20066;-90
2021/04/01 15:54:08;;;;;;;26.15;7.78;;;16.60;97.60;;;;;;4959820;28;20051;-89
2021/04/01 15:56:41;;;;;;;25.50;6.20;;;;;;;;;;4949416;28;20541;-89
2021/04/01 15:59:12;;;;;;;25.15;6.53;;;;;;;;;;4955479;29;20047;-88
2021/04/01 16:01:40;;;;;;;28.45;5.13;;;;;;;;;;4952682;29;20044;-89
2021/04/01 16:04:08;;;;;;;28.98;7.47;;;;;;;;;;4957442;29;20051;-86
2021/04/01 16:06:36;;;;;;;20.75;5.55;;;;;;;;;;4964031;28;20058;-90
2021/04/01 16:09:07;;;;;;;14.63;4.45;;;;;;;;;;4974693;28;20074;-90
2021/04/01 16:11:36;;;;;;;30.40;6.05;;;;;;;;;;4951519;28;20503;-87
2021/04/01 16:14:04;;;;;;;27.20;6.07;;;;;;;;;;4931767;29;20040;-88
2021/04/01 16:16:32;;;;;;;37.05;7.38;;;;;;;;;;4975743;28;20058;-89
2021/04/01 16:19:01;;;;;;;28.92;9.30;;;;;;;;;;4972272;28;20062;-91
2021/04/01 16:21:29;;;;;;;31.77;9.63;;;;;;;;;;4950261;28;20043;-91
2021/04/01 16:24:04;;;;;;;23.45;6.60;;;14.70;99.90;;;;;;4940906;28;20066;-89
2021/04/01 16:26:32;;;;;;;20.00;5.97;;;;;;;;;;4953483;28;20054;-90
2021/04/01 16:29:00;;;;;;;25.02;8.45;;;;;;;;;;4943021;28;20066;-90
2021/04/01 16:31:29;;;;;;;27.05;6.55;;;;;;;;;;4949070;28;20519;-87
2021/04/01 16:33:57;;;;;;;18.17;4.72;;;14.10;99.90;;;;;;4960008;28;20062;-91